Flight Track Log - Related Links

Times and Time Zones

All times are in EDT time to prevent confusion due to time zone crossing. See the ASQ5941 flight status page for this flight to view local times or setup timezone preferences in your user account.

Time Position Orientation Groundspeed Altitude Reporting Facility
EDT Latitude Longitude Course Direction KTS MPH feet Rate Location/Type
Fri 05:26:33 PM 41.4425 -75.6889 335° Northwest 199 229 6,400  Level New York Center
Fri 05:27:00 PM 41.3895 -76.2118 304° West  Level Estimated
Fri 05:27:33 PM 41.4692 -75.7489 301° West 194 223 8,600  Level New York Center
Fri 05:28:00 PM 41.4019 -76.3341 307° West  Level Estimated
Fri 05:28:33 PM 41.5036 -75.8206 303° West 206 237 10,000  Level New York Center
Fri 05:29:00 PM 41.4142 -76.4563 334° Northwest  Level Estimated
Fri 05:29:33 PM 41.5492 -75.9211 301° West 262 302 10,900  Level New York Center
Fri 05:30:33 PM 41.5950 -76.0189 302° West 306 352 11,000 400 Climbing New York Center
Fri 05:31:33 PM 41.6367 -76.1139 300° West 323 372 11,700 1,500 Climbing New York Center
Fri 05:32:33 PM 41.6836 -76.2258 299° West 323 372 14,000 1,950 Climbing New York Center
Fri 05:33:33 PM 41.7161 -76.3314 292° West 311 358 15,600 1,350 Climbing New York Center
Fri 05:34:33 PM 41.7464 -76.4422 290° West 311 358 16,700 950 Climbing New York Center
Fri 05:35:33 PM 41.7800 -76.5619 291° West 329 379 17,500 1,106 Climbing New York Center
Fri 05:37:32 PM 41.8419 -76.7836 291° West 340 391 20,000 1,293 Climbing Cleveland Center
Fri 05:38:34 PM 41.8744 -76.9017 290° West 338 389 21,400 1,355 Climbing Cleveland Center
Fri 05:39:36 PM 41.9064 -77.0181 290° West 335 386 22,800 1,452 Climbing Cleveland Center
Fri 05:40:38 PM 41.9447 -77.1592 290° West 335 386 24,400 1,210 Climbing Cleveland Center
Fri 05:41:40 PM 41.9775 -77.2806 290° West 342 394 25,300 871 Climbing Cleveland Center
Fri 05:42:42 PM 42.0100 -77.4014 290° West 342 394 26,200 919 Climbing Cleveland Center
Fri 05:43:44 PM 42.0419 -77.5217 290° West 342 394 27,200 912 Climbing Cleveland Center
Fri 05:44:47 PM 42.0753 -77.6433 290° West 344 396 28,100 912 Climbing Cleveland Center
Fri 05:45:49 PM 42.1081 -77.7619 290° West 340 391 29,100 919 Climbing Cleveland Center
Fri 05:46:51 PM 42.1400 -77.8847 289° West 347 399 30,000 968 Climbing Cleveland Center
Fri 05:47:53 PM 42.1794 -78.0278 290° West 339 390 31,100 1,016 Climbing Cleveland Center
Fri 05:48:55 PM 42.2108 -78.1500 289° West 343 395 32,100 919 Climbing Cleveland Center
Fri 05:49:57 PM 42.2439 -78.2739 290° West 356 410 33,000 1,113 Climbing Cleveland Center
Fri 05:50:59 PM 42.2731 -78.3981 288° West 353 406 34,400 1,403 Climbing Cleveland Center
Fri 05:52:01 PM 42.3022 -78.5131 289° West 333 383 35,900 774 Climbing Cleveland Center
Fri 05:53:03 PM 42.3300 -78.6281 288° West 324 373 36,000 48 Climbing Cleveland Center
Fri 05:54:05 PM 42.3667 -78.7789 288° West 349 402 36,000  Level Cleveland Center
Fri 05:55:07 PM 42.3964 -78.9056 288° West 365 420 36,000  Level Cleveland Center
Fri 05:56:10 PM 42.4094 -79.0544 277° West 398 458 36,000  Level Cleveland Center
Fri 05:57:12 PM 42.4183 -79.1992 275° West 392 451 36,000  Level Cleveland Center
Fri 05:58:14 PM 42.4289 -79.3692 275° West 383 441 36,000  Level Cleveland Center
Fri 05:59:16 PM 42.4392 -79.5017 276° West 364 419 36,000  Level Cleveland Center
Fri 06:00:18 PM 42.4461 -79.6308 274° West 354 407 36,000  Level Cleveland Center
Fri 06:01:20 PM 42.4533 -79.7608 274° West 350 403 36,000  Level Cleveland Center
Fri 06:02:22 PM 42.4631 -79.9056 275° West 359 413 36,000  Level Cleveland Center
Fri 06:03:24 PM 42.4675 -80.0439 273° West 371 427 36,000  Level Cleveland Center
Fri 06:04:26 PM 42.4756 -80.1875 274° West 380 437 36,000  Level Cleveland Center
Fri 06:05:28 PM 42.4842 -80.3531 274° West 376 433 36,000  Level Cleveland Center
Fri 06:06:30 PM 42.4933 -80.4972 275° West 380 437 36,000  Level Cleveland Center
Fri 06:07:32 PM 42.5008 -80.6358 274° West 371 427 36,000  Level Cleveland Center
Fri 06:08:35 PM 42.5069 -80.7856 273° West 394 453 36,000  Level Cleveland Center
Fri 06:09:37 PM 42.5125 -80.9289 273° West 385 443 36,000  Level Cleveland Center
Fri 06:10:39 PM 42.5153 -81.0714 272° West 379 436 36,000  Level Cleveland Center
Fri 06:11:41 PM 42.5189 -81.2156 272° West 379 436 36,000  Level Cleveland Center
Fri 06:12:43 PM 42.5331 -81.3794 277° West 374 430 36,000  Level Cleveland Center
Fri 06:13:45 PM 42.5492 -81.5158 279° West 366 421 36,000  Level Cleveland Center
Fri 06:14:47 PM 42.5633 -81.6494 278° West 360 414 36,000  Level Cleveland Center
Fri 06:15:49 PM 42.5800 -81.7903 279° West 355 409 36,000  Level Cleveland Center
Fri 06:16:51 PM 42.5944 -81.9200 279° West 351 404 36,000  Level Cleveland Center
Fri 06:17:53 PM 42.6072 -82.0497 278° West 349 402 36,000  Level Cleveland Center
Fri 06:18:55 PM 42.6222 -82.1814 279° West 352 405 36,000  Level Cleveland Center
Fri 06:19:57 PM 42.6356 -82.3108 278° West 349 402 36,000  Level Cleveland Center
Fri 06:21:00 PM 42.6522 -82.4719 278° West 358 412 36,000  Level Cleveland Center
Fri 06:22:02 PM 42.6736 -82.6025 283° West 359 413 36,000  Level Cleveland Center
Fri 06:23:04 PM 42.7397 -82.7014 312° West 357 411 36,000  Level Cleveland Center
Fri 06:24:06 PM 42.8100 -82.7956 316° Northwest 357 411 36,000  Level Cleveland Center
Fri 06:25:08 PM 42.8736 -82.8950 311° West 359 413 36,000  Level Cleveland Center
Fri 06:26:10 PM 42.8975 -83.0511 282° West 358 412 36,000  Level Cleveland Center
Fri 06:27:12 PM 42.8967 -83.1922 270° West 373 429 36,000 -97 Level Cleveland Center
Fri 06:28:14 PM 42.8953 -83.3342 269° West 377 434 35,800 -532 Descending Cleveland Center
Fri 06:29:16 PM 42.8953 -83.4725 270° West 371 427 34,900 -919 Descending Cleveland Center
Fri 06:30:18 PM 42.8944 -83.6169 270° West 381 438 33,900 -1,065 Descending Cleveland Center
Fri 06:31:20 PM 42.8928 -83.7947 269° West 393 452 32,700 -1,065 Descending Cleveland Center
Fri 06:32:22 PM 42.8914 -83.9347 269° West 376 433 31,700 -960 Descending Cleveland Center
Fri 06:33:25 PM 42.8911 -84.0758 270° West 374 430 30,700 -960 Descending Cleveland Center
Fri 06:34:27 PM 42.8889 -84.2203 269° West 382 440 29,700 -1,016 Descending Cleveland Center
Fri 06:35:29 PM 42.8869 -84.3775 269° West 384 442 28,600 -823 Descending Cleveland Center
Fri 06:36:31 PM 42.8856 -84.5211 269° West 380 437 28,000 -290 Descending Cleveland Center
Fri 06:37:33 PM 42.8769 -84.6658 265° West 384 442 28,000  Level Cleveland Center
Fri 06:38:35 PM 42.8606 -84.8108 261° West 388 447 28,000  Level Cleveland Center
Fri 06:39:37 PM 42.8436 -84.9825 262° West 382 440 28,000  Level Cleveland Center
Fri 06:40:39 PM 42.8283 -85.1242 262° West 380 437 28,000  Level Cleveland Center
Fri 06:41:41 PM 42.8122 -85.2669 261° West 380 437 28,000  Level Cleveland Center
Fri 06:42:43 PM 42.7964 -85.4097 261° West 381 438 28,000  Level Cleveland Center
Fri 06:43:45 PM 42.7769 -85.5522 260° West 382 440 28,000 -48 Level Cleveland Center
Fri 06:44:47 PM 42.7514 -85.6978 257° West 392 451 27,900 -871 Descending Cleveland Center
Fri 06:45:49 PM 42.7244 -85.8442 256° West 397 457 26,200 -2,208 Descending Cleveland Center
Fri 06:46:52 PM 42.6919 -86.0200 256° West 396 456 23,300 -2,592 Descending Cleveland Center
Fri 06:47:54 PM 42.6664 -86.1606 256° West 385 443 20,800 -1,597 Descending Cleveland Center
Fri 06:48:56 PM 42.6419 -86.2928 256° West 364 419 20,000 -701 Descending Cleveland Center
Fri 06:50:11 PM 42.6111 -86.4517 255° West 360 414 19,200 -1,095 Descending Chicago Center
Fri 06:51:13 PM 42.5872 -86.5808 256° West 353 406 17,500 -1,935 Descending Chicago Center
Fri 06:52:15 PM 42.5636 -86.7122 256° West 357 411 15,200 -2,371 Descending Chicago Center
Fri 06:53:17 PM 42.5239 -86.8617 250° West 354 407 12,600 -2,177 Descending Chicago Center
Fri 06:54:19 PM 42.4925 -86.9797 250° West 338 389 10,700 -1,306 Descending Chicago Center
Fri 06:55:21 PM 42.4608 -87.0864 248° West 314 361 9,900 -677 Descending Chicago Center
Fri 06:56:23 PM 42.4364 -87.1789 250° West 272 313 9,300 -677 Descending Chicago Center
Fri 06:57:25 PM 42.3947 -87.2550 233° Southwest 270 311 8,500 -919 Descending Chicago Center
Fri 06:58:27 PM 42.3303 -87.3039 209° Southwest 266 306 7,400 -1,065 Descending Chicago Center
Fri 06:59:29 PM 42.2622 -87.3592 211° Southwest 251 289 6,300 -677 Descending Chicago Center
Fri 07:00:31 PM 42.2072 -87.4058 212° Southwest 238 274 6,000 -387 Descending Chicago Center
Fri 07:01:33 PM 42.1531 -87.4519 212° Southwest 231 266 5,500 -768 Descending Chicago Center
Fri 07:02:36 PM 42.0856 -87.4981 207° Southwest 227 261 4,400 -720 Descending Chicago Center
Fri 07:03:38 PM 42.0200 -87.5133 190° South 233 268 4,000 -194 Descending Chicago Center
Fri 07:04:40 PM 41.9897 -87.5847 240° Southwest 237 273 4,000  Level Chicago Center
Fri 07:05:42 PM 41.9842 -87.6561 264° West 212 244 4,000 -387 Level Chicago Center
Fri 07:06:44 PM 41.9836 -87.7169 269° West 184 212 3,200 -857 Descending Chicago Center
Fri 07:08:02 PM 41.9833 -87.8000 270° West 140 161 2,000 -826 Descending Chicago TRACON
Fri 07:09:02 PM 41.9833 -87.8500 270° West 124 143 1,300 -700 Descending Chicago TRACON

Login

Don't have an account? Register now (free) for customized features, flight alerts, and more!